Time;durP1;ratioP1;P1;durP2;ratioP2;P2;SDS_P1;SDS_P2;PMS_P1;PMS_P2;Temp;Humidity;BMP_temperature;BMP_pressure;BME280_temperature;BME280_humidity;BME280_pressure;Samples;Min_cycle;Max_cycle;Signal;HPM_P1;HPM_P2
2022/03/01 00:01:25;;;;;;;10.95;7.38;;;1.60;67.80;;;;;;5122233;28;20221;-77
2022/03/01 00:03:51;;;;;;;9.45;7.05;;;1.60;68.10;;;;;;5121569;28;20208;-78
2022/03/01 00:06:19;;;;;;;10.52;8.18;;;1.50;68.40;;;;;;5114547;28;20200;-78
2022/03/01 00:08:46;;;;;;;8.85;7.20;;;1.50;68.60;;;;;;5115182;28;20197;-78
2022/03/01 00:11:13;;;;;;;8.60;7.07;;;1.50;68.80;;;;;;5114308;28;20747;-78
2022/03/01 00:13:40;;;;;;;7.55;6.85;;;1.40;68.70;;;;;;5115656;28;20199;-78
2022/03/01 00:16:07;;;;;;;8.48;6.22;;;1.40;68.90;;;;;;5114708;28;20209;-78
2022/03/01 00:18:34;;;;;;;18.60;8.80;;;1.40;69.10;;;;;;5114334;28;20227;-78
2022/03/01 00:21:01;;;;;;;18.42;8.30;;;1.40;69.40;;;;;;5113816;28;20223;-78
2022/03/01 00:23:29;;;;;;;8.65;7.60;;;1.40;69.70;;;;;;5114849;28;20196;-78
2022/03/01 00:25:56;;;;;;;8.15;7.30;;;1.30;70.00;;;;;;5114789;28;20203;-78
2022/03/01 00:28:23;;;;;;;9.68;6.97;;;1.30;70.00;;;;;;5114422;28;20200;-78
2022/03/01 00:30:49;;;;;;;11.98;7.22;;;1.40;70.20;;;;;;5114593;28;20225;-78
2022/03/01 00:33:16;;;;;;;11.40;9.05;;;1.30;70.50;;;;;;5114388;28;20590;-78
2022/03/01 00:35:43;;;;;;;9.68;8.63;;;1.20;70.80;;;;;;5114206;28;20213;-78
2022/03/01 00:38:09;;;;;;;10.93;7.97;;;1.30;71.40;;;;;;5114257;28;20219;-77
2022/03/01 00:40:37;;;;;;;7.70;6.93;;;1.20;71.60;;;;;;5115021;28;20227;-78
2022/03/01 00:43:04;;;;;;;9.70;7.63;;;1.20;72.00;;;;;;5114982;28;20562;-78
2022/03/01 00:45:31;;;;;;;9.30;6.72;;;1.20;72.40;;;;;;5114524;28;20204;-78
2022/03/01 00:47:58;;;;;;;11.48;8.40;;;1.10;72.60;;;;;;5114364;28;20196;-78
2022/03/01 00:50:25;;;;;;;11.52;8.13;;;1.10;73.10;;;;;;5114051;28;20231;-77
2022/03/01 00:52:51;;;;;;;13.27;7.25;;;1.10;73.40;;;;;;5114341;28;20665;-78
2022/03/01 00:55:18;;;;;;;11.95;7.90;;;1.10;73.80;;;;;;5114245;28;20211;-77
2022/03/01 00:57:46;;;;;;;10.02;7.30;;;1.00;74.20;;;;;;5114282;28;20223;-78
2022/03/01 01:00:14;;;;;;;9.88;8.25;;;1.00;74.60;;;;;;5118610;28;20228;-77
2022/03/01 01:02:41;;;;;;;10.27;7.38;;;0.90;75.00;;;;;;5131551;28;20196;-77
2022/03/01 01:05:08;;;;;;;9.48;6.97;;;0.90;75.30;;;;;;5131563;28;20204;-76
2022/03/01 01:07:35;;;;;;;9.60;7.53;;;0.80;75.50;;;;;;5120580;28;20204;-78
2022/03/01 01:10:02;;;;;;;11.18;9.13;;;0.80;76.00;;;;;;5114941;28;20241;-78
2022/03/01 01:12:28;;;;;;;13.05;10.13;;;0.80;76.10;;;;;;5114406;28;20204;-78
2022/03/01 01:14:56;;;;;;;9.30;6.40;;;0.70;76.40;;;;;;5114241;28;20211;-78
2022/03/01 01:17:23;;;;;;;10.80;8.65;;;0.70;76.70;;;;;;5114124;28;20204;-78
2022/03/01 01:19:50;;;;;;;13.90;8.20;;;0.70;77.00;;;;;;5117491;28;20227;-78
2022/03/01 01:25:09;;;;;;;10.30;8.02;;;0.60;77.60;;;;;;5101670;27;20324;-78
2022/03/01 01:27:36;;;;;;;10.32;8.15;;;0.60;78.30;;;;;;5098253;28;20203;-78
2022/03/01 01:30:05;;;;;;;11.63;8.40;;;0.60;78.90;;;;;;5111742;28;20223;-77
2022/03/01 01:32:32;;;;;;;14.10;8.88;;;0.50;79.10;;;;;;5118520;28;20206;-78
2022/03/01 01:34:59;;;;;;;9.75;8.27;;;0.50;79.50;;;;;;5117503;28;20203;-77
2022/03/01 01:37:26;;;;;;;10.75;7.97;;;0.50;79.80;;;;;;5118345;28;20199;-78
2022/03/01 01:39:52;;;;;;;12.35;7.82;;;0.40;79.80;;;;;;5118062;28;20231;-78
2022/03/01 01:42:19;;;;;;;9.52;7.55;;;0.30;80.10;;;;;;5118140;28;20211;-77
2022/03/01 01:44:46;;;;;;;11.70;7.95;;;0.30;80.50;;;;;;5117709;28;20207;-78
2022/03/01 01:47:14;;;;;;;10.65;8.60;;;0.30;80.80;;;;;;5118002;28;20208;-78
2022/03/01 01:49:41;;;;;;;15.10;8.57;;;0.20;81.00;;;;;;5117492;28;20215;-78
2022/03/01 01:52:08;;;;;;;10.70;8.35;;;0.20;81.40;;;;;;5117360;28;20208;-77
2022/03/01 01:54:35;;;;;;;14.32;8.50;;;0.20;81.70;;;;;;5117625;28;20200;-78
2022/03/01 01:57:12;;;;;;;9.43;7.60;;;0.20;82.10;;;;;;5117934;28;20204;-77
2022/03/01 01:59:39;;;;;;;11.45;7.85;;;0.20;82.50;;;;;;5115744;28;20215;-77
2022/03/01 02:02:06;;;;;;;11.10;8.60;;;0.20;82.70;;;;;;5107252;28;20235;-78
2022/03/01 02:04:34;;;;;;;15.07;8.95;;;0.20;82.80;;;;;;5117508;28;20207;-78
2022/03/01 02:07:01;;;;;;;11.35;8.23;;;0.10;83.90;;;;;;5117671;28;20227;-78
2022/03/01 02:09:28;;;;;;;14.15;9.05;;;0.10;83.70;;;;;;5117072;28;20700;-78
2022/03/01 02:11:55;;;;;;;8.02;7.22;;;0.10;84.10;;;;;;5117148;28;20219;-78
2022/03/01 02:14:21;;;;;;;17.05;8.57;;;0.10;84.80;;;;;;5117302;28;20204;-78
2022/03/01 02:16:49;;;;;;;11.77;8.90;;;0.00;84.90;;;;;;5117484;28;20204;-77
2022/03/01 02:19:16;;;;;;;11.35;8.65;;;-0.10;85.50;;;;;;5117471;28;20226;-77
2022/03/01 02:21:48;;;;;;;13.18;9.85;;;-0.10;86.80;;;;;;5117368;28;20204;-78
2022/03/01 02:24:16;;;;;;;10.27;7.75;;;-0.10;86.60;;;;;;5116970;28;20199;-78
2022/03/01 02:26:43;;;;;;;11.00;8.85;;;-0.10;87.00;;;;;;5117300;28;20211;-77
2022/03/01 02:29:09;;;;;;;14.15;8.68;;;-0.20;87.10;;;;;;5116256;28;20204;-78
2022/03/01 02:31:37;;;;;;;9.48;7.82;;;-0.20;87.60;;;;;;5116820;28;20207;-77
2022/03/01 02:34:04;;;;;;;12.93;8.55;;;-0.20;88.10;;;;;;5116441;28;20208;-78
2022/03/01 02:36:31;;;;;;;12.93;9.15;;;-0.30;88.30;;;;;;5117444;28;20207;-78
2022/03/01 02:38:59;;;;;;;9.30;8.23;;;-0.30;88.80;;;;;;5115003;28;20793;-78
2022/03/01 02:41:26;;;;;;;11.50;8.68;;;-0.30;89.50;;;;;;5118429;28;20224;-78
2022/03/01 02:43:53;;;;;;;8.55;7.72;;;-0.30;89.90;;;;;;5118680;28;20207;-78
2022/03/01 02:46:20;;;;;;;12.02;8.93;;;-0.40;90.20;;;;;;5118706;28;20211;-78
2022/03/01 02:48:46;;;;;;;11.48;7.85;;;-0.30;90.40;;;;;;5118560;28;20199;-78
2022/03/01 02:51:13;;;;;;;11.05;7.82;;;-0.30;90.40;;;;;;5118188;28;20223;-78
2022/03/01 02:53:40;;;;;;;11.77;8.45;;;-0.30;90.50;;;;;;5117894;28;20202;-78
2022/03/01 02:56:08;;;;;;;12.18;7.78;;;-0.30;90.60;;;;;;5118079;28;20206;-78
2022/03/01 02:58:35;;;;;;;13.27;10.48;;;-0.40;90.60;;;;;;5118458;28;20239;-78
2022/03/01 03:01:01;;;;;;;10.95;9.88;;;-0.40;90.70;;;;;;5117824;28;20688;-78
2022/03/01 03:03:28;;;;;;;10.65;8.57;;;-0.40;90.80;;;;;;5118299;28;20210;-78
2022/03/01 03:05:55;;;;;;;11.90;8.55;;;-0.50;91.00;;;;;;5117639;28;20204;-78
2022/03/01 03:08:22;;;;;;;10.82;8.55;;;-0.50;91.10;;;;;;5118768;28;20211;-78
2022/03/01 03:10:49;;;;;;;9.38;8.48;;;-0.50;91.30;;;;;;5117070;28;20236;-78
2022/03/01 03:13:17;;;;;;;12.35;8.65;;;-0.50;91.60;;;;;;5117579;28;20203;-78
2022/03/01 03:15:44;;;;;;;8.82;7.13;;;-0.60;91.70;;;;;;5118034;28;20204;-78
2022/03/01 03:18:11;;;;;;;13.13;8.50;;;-0.60;91.90;;;;;;5118137;28;20200;-78
2022/03/01 03:20:38;;;;;;;9.25;8.05;;;-0.60;92.20;;;;;;5117264;28;20731;-78
2022/03/01 03:23:05;;;;;;;13.55;8.52;;;-0.60;92.30;;;;;;5117712;28;20207;-78
2022/03/01 03:25:32;;;;;;;11.52;9.43;;;-0.60;92.40;;;;;;5117761;28;20210;-77
2022/03/01 03:27:59;;;;;;;11.13;8.73;;;-0.60;92.80;;;;;;5117950;28;20204;-78
2022/03/01 03:30:27;;;;;;;14.63;10.20;;;-0.60;92.60;;;;;;5116741;28;20219;-77
2022/03/01 03:32:54;;;;;;;11.75;7.68;;;-0.60;92.70;;;;;;5117567;28;20207;-78
2022/03/01 03:35:22;;;;;;;17.10;9.18;;;-0.60;92.80;;;;;;5117669;28;20204;-78
2022/03/01 03:37:49;;;;;;;10.25;8.32;;;-0.60;92.90;;;;;;5117648;28;20559;-78
2022/03/01 03:40:16;;;;;;;10.93;8.15;;;-0.60;93.10;;;;;;5117107;28;20230;-78
2022/03/01 03:42:44;;;;;;;14.50;7.90;;;-0.70;93.10;;;;;;5100650;28;20677;-78
2022/03/01 03:45:12;;;;;;;10.43;8.23;;;-0.70;93.30;;;;;;5117532;28;20206;-78
2022/03/01 03:47:40;;;;;;;10.27;7.47;;;-0.70;93.40;;;;;;5117351;28;20196;-78
2022/03/01 03:50:09;;;;;;;11.50;7.95;;;-0.70;93.70;;;;;;5116215;28;20231;-78
2022/03/01 03:52:36;;;;;;;7.90;7.10;;;-0.70;93.40;;;;;;5116825;28;20203;-78
2022/03/01 03:55:05;;;;;;;8.80;7.20;;;-0.70;93.40;;;;;;5117293;28;20210;-77
2022/03/01 03:57:32;;;;;;;10.18;7.80;;;-0.70;93.50;;;;;;5117275;28;20294;-78
2022/03/01 03:59:59;;;;;;;15.40;8.02;;;-0.70;93.50;;;;;;5116654;28;20230;-78
2022/03/01 04:02:26;;;;;;;10.68;7.63;;;-0.70;93.60;;;;;;5116162;28;20203;-78
2022/03/01 04:04:54;;;;;;;11.13;8.80;;;-0.70;93.60;;;;;;5118162;28;20200;-78
2022/03/01 04:07:21;;;;;;;16.05;9.60;;;-0.80;93.60;;;;;;5125294;28;20196;-77
2022/03/01 04:09:48;;;;;;;9.40;7.78;;;-0.80;93.70;;;;;;5133843;28;20199;-77
2022/03/01 04:12:15;;;;;;;11.70;8.63;;;-0.80;93.70;;;;;;5137222;28;20192;-77
2022/03/01 04:14:42;;;;;;;11.80;8.77;;;-0.70;93.80;;;;;;5119907;28;20714;-78
2022/03/01 04:17:09;;;;;;;14.30;8.57;;;-0.70;93.90;;;;;;5118747;28;20207;-78
2022/03/01 04:19:36;;;;;;;11.77;9.80;;;-0.80;93.80;;;;;;5117205;28;20600;-78
2022/03/01 04:22:04;;;;;;;12.45;9.02;;;-0.80;94.00;;;;;;5117532;28;20207;-78
2022/03/01 04:24:31;;;;;;;11.68;10.57;;;-0.80;93.90;;;;;;5117269;28;20599;-77
2022/03/01 04:26:58;;;;;;;10.52;8.18;;;-0.80;94.00;;;;;;5117537;28;20544;-78
2022/03/01 04:29:25;;;;;;;9.60;8.00;;;-0.80;94.10;;;;;;5116932;28;20223;-78
2022/03/01 04:31:52;;;;;;;17.30;7.45;;;-0.90;94.20;;;;;;5117289;28;20264;-78
2022/03/01 04:34:18;;;;;;;11.38;8.25;;;-0.90;94.40;;;;;;5117385;28;20210;-78
2022/03/01 04:36:45;;;;;;;9.43;7.10;;;-0.90;94.50;;;;;;5117257;28;20579;-78
2022/03/01 04:39:13;;;;;;;15.02;8.25;;;-0.90;94.50;;;;;;5130376;28;20223;-78
2022/03/01 04:41:40;;;;;;;12.02;9.27;;;-0.90;94.70;;;;;;5132846;28;20302;-76
2022/03/01 04:44:07;;;;;;;13.48;10.77;;;-0.90;94.80;;;;;;5125835;28;20203;-78
2022/03/01 04:46:33;;;;;;;14.18;8.23;;;-1.00;94.90;;;;;;5116283;28;20203;-78
2022/03/01 04:49:00;;;;;;;16.23;9.93;;;-1.00;95.00;;;;;;5117340;28;20206;-78
2022/03/01 04:51:27;;;;;;;10.73;8.65;;;-1.10;95.00;;;;;;5121912;28;20231;-78
2022/03/01 04:53:54;;;;;;;12.48;7.72;;;-1.10;95.20;;;;;;5120722;28;20234;-77
2022/03/01 04:56:22;;;;;;;12.57;8.05;;;-1.20;95.30;;;;;;5129583;28;20207;-76
2022/03/01 04:58:49;;;;;;;9.45;8.15;;;-1.20;95.50;;;;;;5131627;28;20227;-78
2022/03/01 05:01:16;;;;;;;11.55;7.95;;;-1.20;95.70;;;;;;5119656;28;20234;-79
2022/03/01 05:03:43;;;;;;;13.57;10.43;;;-1.30;95.80;;;;;;5124259;28;20199;-77
2022/03/01 05:06:09;;;;;;;11.32;8.63;;;-1.30;95.80;;;;;;5133160;28;20184;-77
2022/03/01 05:08:36;;;;;;;10.98;8.15;;;-1.30;95.80;;;;;;5128694;28;20235;-79
2022/03/01 05:11:04;;;;;;;16.67;10.57;;;-1.30;95.80;;;;;;5118927;22;20224;-81
2022/03/01 05:13:32;;;;;;;10.52;7.78;;;-1.20;96.00;;;;;;5079676;28;20212;-81
2022/03/01 05:15:59;;;;;;;11.23;8.65;;;-1.30;95.90;;;;;;5086292;28;20193;-80
2022/03/01 05:18:26;;;;;;;12.55;8.73;;;-1.30;96.00;;;;;;5094027;28;20205;-79
2022/03/01 05:20:53;;;;;;;8.80;7.72;;;-1.30;96.10;;;;;;5090098;28;20221;-79
2022/03/01 05:23:20;;;;;;;14.02;8.50;;;-1.30;96.20;;;;;;5074429;28;20196;-80
2022/03/01 05:25:46;;;;;;;9.75;8.70;;;-1.40;96.20;;;;;;5076154;28;20205;-79
2022/03/01 05:28:13;;;;;;;10.80;8.68;;;-1.40;96.40;;;;;;5094931;28;20205;-80
2022/03/01 05:30:41;;;;;;;15.13;8.57;;;-1.40;96.50;;;;;;5094017;28;20205;-80
2022/03/01 05:33:08;;;;;;;16.70;8.95;;;-1.50;96.60;;;;;;5075107;28;20202;-78
2022/03/01 05:35:35;;;;;;;11.90;9.38;;;-1.50;96.70;;;;;;5084432;28;20205;-79
2022/03/01 05:38:02;;;;;;;16.27;8.82;;;-1.50;96.80;;;;;;5095601;28;20211;-79
2022/03/01 05:40:33;;;;;;;11.75;9.40;;;-1.50;96.90;;;;;;5087304;28;20232;-79
2022/03/01 05:43:00;;;;;;;14.63;9.45;;;-1.60;96.90;;;;;;5075844;28;20204;-80
2022/03/01 05:45:28;;;;;;;16.73;10.07;;;-1.70;97.00;;;;;;5076555;28;20205;-80
2022/03/01 05:47:56;;;;;;;11.68;8.60;;;-1.70;97.10;;;;;;5075525;28;20198;-80
2022/03/01 05:50:23;;;;;;;9.70;7.38;;;-1.60;97.10;;;;;;5081322;28;20225;-80
2022/03/01 05:52:51;;;;;;;18.05;9.35;;;-1.60;97.10;;;;;;5096230;28;20219;-79
2022/03/01 05:55:18;;;;;;;9.27;8.27;;;-1.60;97.10;;;;;;5088757;28;20225;-78
2022/03/01 05:57:44;;;;;;;14.98;10.68;;;-1.60;97.30;;;;;;5068324;28;20220;-82
2022/03/01 06:00:14;;;;;;;13.07;9.18;;;-1.50;97.40;;;;;;5068683;28;20231;-78
2022/03/01 06:02:42;;;;;;;13.35;9.05;;;-1.60;97.40;;;;;;5083091;28;20198;-80
2022/03/01 06:05:12;;;;;;;15.15;11.25;;;-1.70;97.40;;;;;;5074999;28;20193;-79
2022/03/01 06:07:39;;;;;;;13.38;8.25;;;-1.70;97.40;;;;;;5078149;28;20194;-79
2022/03/01 06:10:07;;;;;;;14.38;8.57;;;-1.70;97.30;;;;;;5080442;28;20201;-79
2022/03/01 06:12:34;;;;;;;13.50;10.27;;;-1.70;97.30;;;;;;5095713;28;20205;-81
2022/03/01 06:15:00;;;;;;;10.93;9.07;;;-1.70;97.40;;;;;;5096966;28;20703;-79
2022/03/01 06:17:27;;;;;;;12.32;8.43;;;-1.70;97.40;;;;;;5096308;28;20211;-80
2022/03/01 06:19:54;;;;;;;10.35;8.13;;;-1.70;97.30;;;;;;5096442;28;20228;-80
2022/03/01 06:22:22;;;;;;;13.25;9.88;;;-1.70;97.30;;;;;;5116561;28;20204;-80
2022/03/01 06:24:49;;;;;;;15.65;9.25;;;-1.60;97.30;;;;;;5116819;28;20649;-79
2022/03/01 06:27:16;;;;;;;14.55;8.55;;;-1.60;97.40;;;;;;5096695;28;20203;-80
2022/03/01 06:29:43;;;;;;;15.13;11.25;;;-1.60;97.80;;;;;;5096426;28;20205;-79
2022/03/01 06:32:09;;;;;;;15.80;10.63;;;-1.70;98.20;;;;;;5109256;28;20231;-80
2022/03/01 06:34:36;;;;;;;17.60;9.95;;;-1.60;98.50;;;;;;5112524;28;20205;-79
2022/03/01 06:37:03;;;;;;;12.65;9.20;;;-1.60;98.50;;;;;;5093071;28;20212;-79
2022/03/01 06:39:32;;;;;;;14.38;9.82;;;-1.50;98.40;;;;;;5092748;28;20225;-81
2022/03/01 06:41:59;;;;;;;11.43;7.68;;;-1.40;98.20;;;;;;5110037;28;20221;-79
2022/03/01 06:44:26;;;;;;;16.30;11.07;;;-1.40;97.70;;;;;;5106805;28;20204;-80
2022/03/01 06:46:53;;;;;;;13.45;10.77;;;-1.30;97.40;;;;;;5092951;28;20235;-81
2022/03/01 06:49:20;;;;;;;13.80;10.40;;;-1.30;97.40;;;;;;5096303;28;20613;-81
2022/03/01 06:51:47;;;;;;;10.48;8.18;;;-1.30;97.30;;;;;;5099263;28;20284;-80
2022/03/01 06:54:13;;;;;;;14.90;11.02;;;-1.30;99.40;;;;;;5102707;28;20211;-81
2022/03/01 06:56:41;;;;;;;16.85;12.05;;;-1.20;99.90;;;;;;5097697;28;20207;-81
2022/03/01 06:59:08;;;;;;;12.40;8.13;;;-1.10;99.90;;;;;;5095064;28;20208;-80
2022/03/01 07:01:35;;;;;;;16.10;9.93;;;-0.90;99.90;;;;;;5093274;28;20221;-82
2022/03/01 07:04:01;;;;;;;13.07;9.10;;;-0.80;99.90;;;;;;5083945;28;20212;-82
2022/03/01 07:06:28;;;;;;;15.48;10.38;;;-0.60;99.40;;;;;;5078259;28;20201;-81
2022/03/01 07:08:55;;;;;;;14.02;10.18;;;-0.50;97.50;;;;;;5082916;28;20673;-81
2022/03/01 07:11:22;;;;;;;13.73;9.43;;;-0.40;96.60;;;;;;5100183;28;20239;-80
2022/03/01 07:13:51;;;;;;;12.75;9.45;;;-0.30;96.20;;;;;;5095454;28;20200;-83
2022/03/01 07:16:18;;;;;;;13.48;8.77;;;-0.20;95.60;;;;;;5077139;28;20282;-83
2022/03/01 07:18:45;;;;;;;12.40;8.02;;;-0.30;95.40;;;;;;5081464;28;20689;-83
2022/03/01 07:21:12;;;;;;;8.88;7.78;;;-0.30;95.00;;;;;;5082684;28;20223;-83
2022/03/01 07:23:39;;;;;;;12.73;8.80;;;-0.20;94.80;;;;;;5076662;28;20207;-82
2022/03/01 07:26:06;;;;;;;13.02;8.20;;;-0.20;95.00;;;;;;5083881;28;20256;-80
2022/03/01 07:28:34;;;;;;;11.50;8.95;;;-0.20;94.90;;;;;;5065413;28;20212;-83
2022/03/01 07:31:02;;;;;;;14.25;8.10;;;-0.10;94.90;;;;;;5064121;28;20210;-83
2022/03/01 07:33:29;;;;;;;14.05;9.27;;;-0.10;94.80;;;;;;5058219;28;20198;-83
2022/03/01 07:35:57;;;;;;;13.30;10.13;;;-0.10;94.70;;;;;;5058492;28;20208;-82
2022/03/01 07:38:24;;;;;;;15.77;10.00;;;0.00;94.60;;;;;;5062898;28;20201;-81
2022/03/01 07:40:51;;;;;;;12.25;9.70;;;0.00;94.70;;;;;;5072087;28;20579;-81
2022/03/01 07:43:17;;;;;;;17.73;10.80;;;0.10;94.60;;;;;;5073717;28;20201;-82
2022/03/01 07:45:44;;;;;;;13.20;9.00;;;0.20;94.30;;;;;;5062685;28;20205;-80
2022/03/01 07:48:12;;;;;;;13.40;10.18;;;0.20;93.50;;;;;;5070206;28;20203;-83
2022/03/01 07:50:40;;;;;;;15.38;10.18;;;0.30;92.70;;;;;;5066643;28;20213;-82
2022/03/01 07:53:08;;;;;;;11.40;8.65;;;0.30;92.90;;;;;;5057125;28;20222;-82
2022/03/01 07:55:35;;;;;;;11.50;9.00;;;0.40;93.10;;;;;;5058011;28;20213;-82
2022/03/01 07:58:02;;;;;;;12.15;9.02;;;0.50;92.70;;;;;;5077411;28;20273;-83
2022/03/01 08:00:29;;;;;;;8.02;7.05;;;0.60;92.20;;;;;;5078155;28;20239;-82
2022/03/01 08:02:55;;;;;;;10.07;7.95;;;0.60;92.40;;;;;;5079342;28;20299;-83
2022/03/01 08:05:25;;;;;;;10.25;8.25;;;0.60;92.70;;;;;;5085631;28;20216;-81
2022/03/01 08:07:52;;;;;;;13.45;9.18;;;0.80;92.30;;;;;;5077124;28;20207;-82
2022/03/01 08:10:19;;;;;;;12.73;10.07;;;1.00;91.50;;;;;;5077380;28;20229;-82
2022/03/01 08:12:46;;;;;;;12.98;8.43;;;1.10;90.90;;;;;;5078769;28;20210;-82
2022/03/01 08:15:13;;;;;;;10.45;8.20;;;1.10;90.60;;;;;;5077469;28;20215;-82
2022/03/01 08:17:47;;;;;;;10.73;8.13;;;1.20;90.60;;;;;;5077576;28;20209;-83
2022/03/01 08:20:14;;;;;;;10.32;8.50;;;1.30;90.60;;;;;;5071791;28;20254;-83
2022/03/01 08:22:43;;;;;;;11.43;10.23;;;1.30;90.20;;;;;;5048362;28;20225;-81
2022/03/01 08:25:11;;;;;;;11.48;8.20;;;1.30;90.00;;;;;;5091713;28;20205;-81
2022/03/01 08:27:38;;;;;;;10.50;7.43;;;1.40;89.90;;;;;;5077497;28;20197;-84
2022/03/01 08:30:06;;;;;;;14.45;9.07;;;1.40;89.80;;;;;;5078175;28;20603;-84
2022/03/01 08:32:33;;;;;;;12.95;6.03;;;1.40;89.40;;;;;;5087410;28;20206;-83
2022/03/01 08:35:00;;;;;;;10.30;9.10;;;1.40;89.70;;;;;;5075190;28;20198;-81
2022/03/01 08:37:27;;;;;;;10.63;8.48;;;1.50;90.20;;;;;;5066209;28;20213;-83
2022/03/01 08:39:55;;;;;;;10.70;8.60;;;1.60;89.00;;;;;;5061025;28;20278;-80
2022/03/01 08:42:22;;;;;;;12.38;8.38;;;1.70;88.80;;;;;;5055995;28;20207;-81
2022/03/01 08:44:49;;;;;;;10.30;7.78;;;1.70;89.00;;;;;;5056378;28;20213;-83
2022/03/01 08:47:16;;;;;;;9.70;7.60;;;1.80;88.80;;;;;;5056948;28;20229;-83
2022/03/01 08:49:42;;;;;;;15.02;9.27;;;2.00;87.90;;;;;;5057624;28;20218;-83
2022/03/01 08:52:09;;;;;;;9.68;8.25;;;1.90;87.40;;;;;;5056387;28;20225;-83
2022/03/01 08:54:36;;;;;;;9.98;8.05;;;2.00;87.50;;;;;;5057780;28;20206;-82
2022/03/01 08:57:04;;;;;;;11.38;10.00;;;2.10;87.50;;;;;;5081469;28;20548;-82
2022/03/01 08:59:31;;;;;;;11.55;9.85;;;2.10;86.10;;;;;;5086575;28;20224;-81
2022/03/01 09:01:58;;;;;;;10.65;8.77;;;2.10;86.30;;;;;;5074823;28;20223;-82
2022/03/01 09:04:25;;;;;;;13.80;8.63;;;2.10;85.80;;;;;;5073427;28;20588;-82
2022/03/01 09:06:52;;;;;;;7.63;6.70;;;2.20;86.20;;;;;;5077055;28;20209;-82
2022/03/01 09:09:19;;;;;;;14.75;7.68;;;2.30;85.40;;;;;;5068427;28;20660;-82
2022/03/01 09:11:45;;;;;;;10.13;7.68;;;2.40;85.20;;;;;;5072686;28;20719;-82
2022/03/01 09:14:14;;;;;;;14.20;8.45;;;2.50;84.30;;;;;;5074083;28;20685;-83
2022/03/01 09:16:40;;;;;;;13.57;9.80;;;2.50;83.70;;;;;;5071061;28;20268;-81
2022/03/01 09:19:08;;;;;;;11.68;8.90;;;2.50;85.60;;;;;;5075748;28;20212;-82
2022/03/01 09:21:35;;;;;;;14.60;9.55;;;2.60;84.60;;;;;;5076535;28;20222;-82
2022/03/01 09:24:02;;;;;;;8.30;6.35;;;2.70;83.70;;;;;;5076539;28;20201;-82
2022/03/01 09:26:28;;;;;;;12.65;7.88;;;2.90;81.80;;;;;;5076365;28;20201;-82
2022/03/01 09:28:55;;;;;;;9.38;8.45;;;2.90;80.90;;;;;;5076520;28;20208;-83
2022/03/01 09:31:23;;;;;;;9.07;6.45;;;3.00;80.20;;;;;;5095981;28;20218;-82
2022/03/01 09:33:50;;;;;;;9.18;7.72;;;3.00;78.40;;;;;;5095994;28;20205;-82
2022/03/01 09:36:17;;;;;;;9.65;8.55;;;3.10;78.70;;;;;;5097359;28;20222;-80
2022/03/01 09:38:45;;;;;;;7.80;6.40;;;3.10;77.40;;;;;;5097660;28;20210;-81
2022/03/01 09:41:13;;;;;;;8.65;7.78;;;3.20;76.40;;;;;;5083582;28;20594;-81
2022/03/01 09:43:41;;;;;;;10.82;8.93;;;3.30;76.70;;;;;;5081490;28;20219;-81
2022/03/01 09:46:10;;;;;;;7.72;5.97;;;3.40;76.40;;;;;;5079881;28;20215;-79
2022/03/01 09:48:38;;;;;;;8.75;7.78;;;3.40;75.90;;;;;;5084636;28;20207;-80
2022/03/01 09:51:08;;;;;;;9.23;8.38;;;3.60;75.10;;;;;;5058857;28;20232;-81
2022/03/01 09:53:35;;;;;;;7.82;6.93;;;3.60;76.30;;;;;;5092629;28;20238;-80
2022/03/01 09:56:04;;;;;;;9.60;8.65;;;3.60;76.20;;;;;;5100645;28;20215;-79
2022/03/01 09:58:31;;;;;;;10.18;8.00;;;3.80;75.70;;;;;;5099988;28;20257;-80
2022/03/01 10:00:57;;;;;;;10.75;9.38;;;3.90;75.60;;;;;;5099188;28;20231;-81
2022/03/01 10:03:24;;;;;;;9.15;7.93;;;4.00;76.00;;;;;;5098134;28;20579;-80
2022/03/01 10:05:52;;;;;;;10.30;8.02;;;4.30;74.60;;;;;;5099898;28;20268;-80
2022/03/01 10:08:21;;;;;;;13.90;8.45;;;4.40;74.40;;;;;;5100182;28;20200;-81
2022/03/01 10:10:50;;;;;;;11.82;9.75;;;4.50;73.50;;;;;;5087336;28;20239;-80
2022/03/01 10:13:23;;;;;;;8.75;7.90;;;4.70;72.20;;;;;;5079637;28;20211;-81
2022/03/01 10:15:51;;;;;;;7.68;6.88;;;4.90;70.10;;;;;;5079015;28;20231;-81
2022/03/01 10:18:18;;;;;;;8.95;7.00;;;4.90;69.20;;;;;;5079750;28;20619;-80
2022/03/01 10:20:46;;;;;;;9.52;7.40;;;4.90;67.80;;;;;;5077703;28;20231;-80
2022/03/01 10:23:21;;;;;;;10.65;7.60;;;4.90;67.00;;;;;;5078193;28;20203;-81
2022/03/01 10:25:48;;;;;;;8.90;7.90;;;5.00;67.40;;;;;;5079679;28;20211;-81
2022/03/01 10:28:15;;;;;;;8.75;6.82;;;4.90;66.70;;;;;;5081158;28;20204;-79
2022/03/01 10:30:41;;;;;;;11.40;7.18;;;4.90;67.90;;;;;;5080414;28;20311;-81
2022/03/01 10:33:10;;;;;;;11.18;8.65;;;5.10;68.20;;;;;;5077657;28;20299;-81
2022/03/01 10:35:38;;;;;;;9.65;7.63;;;5.20;66.60;;;;;;5080811;28;20201;-82
2022/03/01 10:38:07;;;;;;;8.60;7.80;;;5.30;66.10;;;;;;5083247;28;20209;-81
2022/03/01 10:40:36;;;;;;;8.70;7.80;;;5.40;65.40;;;;;;5078866;28;20593;-78
2022/03/01 10:43:07;;;;;;;10.65;7.93;;;5.50;66.00;;;;;;5103143;28;20800;-82
2022/03/01 10:45:40;;;;;;;9.00;7.95;;;5.70;64.90;;;;;;5102616;28;20226;-80
2022/03/01 10:48:10;;;;;;;8.18;7.38;;;5.80;64.20;;;;;;5101888;28;20200;-81
2022/03/01 10:50:38;;;;;;;10.82;9.57;;;6.00;63.30;;;;;;5101040;28;20220;-81
2022/03/01 10:53:05;;;;;;;8.98;7.78;;;6.20;61.80;;;;;;5091554;28;20197;-81
2022/03/01 10:55:37;;;;;;;7.35;6.35;;;6.30;61.20;;;;;;5082404;28;20216;-82
2022/03/01 10:58:06;;;;;;;12.90;7.65;;;6.40;61.00;;;;;;5063988;28;20200;-83
2022/03/01 11:00:34;;;;;;;9.25;7.75;;;6.50;60.80;;;;;;5080107;28;20259;-83
2022/03/01 11:03:03;;;;;;;10.43;8.38;;;6.60;61.90;;;;;;5088566;28;20208;-81
2022/03/01 11:05:31;;;;;;;10.73;8.43;;;6.90;60.00;;;;;;5077612;28;20217;-82
2022/03/01 11:08:02;;;;;;;11.77;8.02;;;7.30;59.10;;;;;;5077401;28;20200;-81
2022/03/01 11:10:31;;;;;;;14.70;9.30;;;7.40;60.00;;;;;;5078057;28;20270;-82
2022/03/01 11:13:01;;;;;;;10.30;8.68;;;7.80;57.10;;;;;;5080483;28;20218;-83
2022/03/01 11:15:44;;;;;;;11.02;8.70;;;8.30;57.00;;;;;;5080999;28;20201;-83
2022/03/01 11:18:27;;;;;;;7.88;7.07;;;8.60;54.50;;;;;;5081226;28;20208;-82
2022/03/01 11:20:56;;;;;;;9.18;7.72;;;9.30;54.50;;;;;;5079769;28;20229;-82
2022/03/01 11:23:24;;;;;;;9.90;8.70;;;9.90;51.30;;;;;;5088586;28;20202;-82
2022/03/01 11:25:53;;;;;;;8.10;7.27;;;10.60;48.40;;;;;;5089920;28;20211;-82
2022/03/01 11:28:39;;;;;;;8.60;7.73;;;10.80;47.20;;;;;;5080746;28;20465;-85
2022/03/01 11:31:17;;;;;;;7.83;7.13;;;10.80;45.30;;;;;;5079951;28;20476;-82
2022/03/01 11:33:55;;;;;;;8.90;8.07;;;11.50;45.50;;;;;;5080361;28;20460;-82
2022/03/01 11:36:23;;;;;;;9.53;8.70;;;12.00;44.70;;;;;;5079956;28;20447;-83
2022/03/01 11:38:49;;;;;;;10.10;9.10;;;12.30;42.50;;;;;;5079609;28;20959;-82
2022/03/01 11:41:20;;;;;;;9.53;8.40;;;13.20;42.70;;;;;;5079251;28;20498;-82
2022/03/01 11:43:55;;;;;;;9.17;8.07;;;13.90;41.80;;;;;;5079579;28;20980;-83
2022/03/01 11:46:22;;;;;;;9.30;8.30;;;14.90;39.90;;;;;;5079942;28;20427;-82
2022/03/01 11:48:53;;;;;;;14.57;9.80;;;15.10;38.20;;;;;;5080125;28;20636;-83
2022/03/01 11:51:31;;;;;;;10.07;9.10;;;15.40;38.70;;;;;;5079261;28;20491;-83
2022/03/01 11:54:01;;;;;;;12.40;8.10;;;15.40;37.50;;;;;;5080043;28;20443;-82
2022/03/01 11:56:28;;;;;;;11.07;8.10;;;14.90;36.10;;;;;;5079520;28;20454;-83
2022/03/01 11:59:04;;;;;;;9.53;8.63;;;14.00;34.60;;;;;;5079194;28;20458;-83
2022/03/01 12:01:33;;;;;;;9.50;7.87;;;13.70;35.30;;;;;;5078818;28;20483;-82
2022/03/01 12:04:02;;;;;;;8.00;7.30;;;13.90;36.70;;;;;;5079469;28;20451;-82
2022/03/01 12:06:30;;;;;;;7.47;6.70;;;13.80;34.40;;;;;;5079244;28;20501;-82
2022/03/01 12:08:58;;;;;;;7.23;6.10;;;13.50;32.40;;;;;;5079635;28;20451;-82
2022/03/01 12:11:36;;;;;;;9.40;7.10;;;14.00;32.80;;;;;;5078934;28;20486;-82
2022/03/01 12:14:07;;;;;;;6.97;6.43;;;14.50;30.70;;;;;;5079342;28;20448;-82
2022/03/01 12:16:35;;;;;;;6.87;6.27;;;15.00;31.70;;;;;;5079102;28;20444;-83
2022/03/01 12:19:11;;;;;;;9.13;8.20;;;14.80;30.40;;;;;;5079583;28;20869;-83
2022/03/01 12:21:38;;;;;;;7.50;6.00;;;13.70;31.20;;;;;;5079011;28;20483;-82
2022/03/01 12:24:06;;;;;;;8.67;7.60;;;13.50;32.60;;;;;;5079047;28;20451;-83
2022/03/01 12:26:43;;;;;;;8.43;7.57;;;13.30;33.00;;;;;;5079072;28;20452;-83
2022/03/01 12:29:11;;;;;;;8.23;7.43;;;13.80;33.20;;;;;;5079055;28;20452;-83
2022/03/01 12:31:38;;;;;;;8.20;7.60;;;14.50;34.60;;;;;;5079102;28;20458;-82
2022/03/01 12:34:08;;;;;;;7.63;6.93;;;15.20;34.00;;;;;;5078779;28;20529;-83
2022/03/01 12:36:36;;;;;;;8.00;7.20;;;16.00;34.40;;;;;;5079189;28;20461;-83
2022/03/01 12:39:07;;;;;;;9.97;9.07;;;16.30;31.40;;;;;;5079149;28;20455;-83
2022/03/01 12:41:34;;;;;;;10.20;8.10;;;16.10;31.00;;;;;;5079289;28;21012;-82
2022/03/01 12:44:03;;;;;;;9.97;7.93;;;15.70;31.10;;;;;;5079184;28;20448;-82
2022/03/01 12:46:32;;;;;;;7.43;6.70;;;13.60;30.50;;;;;;5079405;28;20443;-81
2022/03/01 12:49:00;;;;;;;6.90;6.20;;;13.10;32.80;;;;;;5079055;28;20447;-82